Kirchberg-Wetter.de


Hier erfahren Sie, wie das Wetter wird...


WebCam am Fuchsberg more information WebCam am Fuchsberg


Thunder radar more information blitzortung!


Rain radar more information rain snow radar


Besuchen Sie unsere anderen Wetter Stationen:

Template documentation
and downloads

And another site



Es liegt ein Kommunikationsproblem . Gehen Sie direkt zur Website Meteoalarm : www.meteoalarm.eu und überprüfen Sie die Wetterwarnungen..

METAR-Meldungen aus der Umgebung

   
EHVK - Volkel Rnlafb, Netherlands
Entfernung von der Station bis: SW 18 km
Aktualisierung: 02-07-2022 03:55
Klar  
Klar  
   Wind: variiert 3.7 km/h
Wind: variiert 3.7 km/h
Temperatur: 12°C
Taupunkt: 10°C
Luftfeuchte: 88%
Luftdruck: 1021 hPa
Bewölkt: Klar
Sichtbarkeit: More than 10 km
Bewölkung: Klar
EHVK 020155Z AUTO VRB02KT 9999 NCD 12/10 Q1021 BLU
EDLV - Niederrhein, Germany
Entfernung von der Station bis: SO 25 km
Aktualisierung: 02-07-2022 03:50
Klar  
Klar  
   Wind: Süden 9.3 km/h
Wind: Süden 9.3 km/h
Temperatur: 11°C
Taupunkt: 10°C
Luftfeuchte: 94%
Luftdruck: 1022 hPa
Bewölkt: Klar
Sichtbarkeit: More than 10 km
Bewölkung: Klar
EDLV 020150Z AUTO 18005KT 9999 NCD 11/10 Q1022
EHDL - Deelen Rnlafb, Netherlands
Entfernung von der Station bis: N 35 km
Aktualisierung: 02-07-2022 03:55
Klar  
Klar  
   Wind: variiert 1.9 km/h
Wind: variiert 1.9 km/h
Temperatur: 11°C
Taupunkt: 10°C
Luftfeuchte: 94%
Luftdruck: 1021 hPa
Bewölkt: Klar
Sichtbarkeit: More than 10 km
Bewölkung: Klar
EHDL 020155Z AUTO VRB01KT 9999 NCD 11/10 Q1021 BLU
EHEH - Eindhoven Rnlafb, Netherlands
Entfernung von der Station bis: SW 48 km
Aktualisierung: 02-07-2022 03:55
Klar  
Klar  
   Wind: Süden 3.7 km/h
Wind: Süden 3.7 km/h
Temperatur: 11°C
Taupunkt: 10°C
Luftfeuchte: 94%
Luftdruck: 1021 hPa
Bewölkt: Klar
Sichtbarkeit: More than 10 km
Bewölkung: Klar
EHEH 020155Z AUTO 18002KT 9999 NCD 11/10 Q1021 BLU
EHGR - Gilze-Rijen Rnla, Netherlands
Entfernung von der Station bis: WSW 70 km
Aktualisierung: 02-07-2022 03:55
Stark bewölkt  
Stark bewölkt  
   Wind: SSW 5.6 km/h
Wind: SSW 5.6 km/h
Temperatur: 12°C
Taupunkt: 10°C
Luftfeuchte: 88%
Luftdruck: 1021 hPa
Bewölkt: Stark bewölkt
Sichtbarkeit: More than 10 km
Bewölkung: Teilweise bewölkt 5400 ft,
Stark bewölkt 6000 ft,
Stark bewölkt 6600 ft
EHGR 020155Z AUTO 21003KT 160V220 9999 SCT054 BKN060 BKN066 12/10 Q1021 BLU NOSIG
EBBL - Kleine-Brogel(Ba, Belgium
Entfernung von der Station bis: SSW 71 km
Aktualisierung: 02-07-2022 03:55
Klar  
Klar  
   Wind: variiert 1.9 km/h
Wind: variiert 1.9 km/h
Temperatur: 12°C
Taupunkt: 10°C
Luftfeuchte: 88%
Luftdruck: 1022 hPa
Bewölkt: Klar
Sichtbarkeit: More than 10 km
Bewölkung: Klar
EBBL 020155Z AUTO VRB01KT 9999 NCD 12/10 Q1022 BLU

Script entwickelt von  Saratoga-weather.org Angepasst für das Template von  Weerstation Leuven

Sie finden unser Wetter-Infos auch auf:

Weather Underground

WeatherlinkIP

Wetternetz-Sachsen

Von uns verwendete Ausrüstung:

Wetterstation
Davis Vantage Pro2 Plus

Wetterprogramm
Meteobridge

WetterComputer
TP-Link TL-MR3020

Davis Vantage Pro2 Plus

Meteobridge

TP-Link TL-MR3020